sensor_id;sensor_type;location;lat;lon;timestamp;temperature;humidity
17956;DHT22;27666;51.498;11.966;2024-03-29T17:31:21;14.30;99.90
17956;DHT22;27666;51.498;11.966;2024-03-29T17:34:07;14.20;99.90
17956;DHT22;27666;51.498;11.966;2024-03-29T17:36:52;14.20;99.90
17956;DHT22;27666;51.498;11.966;2024-03-29T17:39:37;14.20;99.90
17956;DHT22;27666;51.498;11.966;2024-03-29T17:42:22;14.20;99.90
17956;DHT22;27666;51.498;11.966;2024-03-29T17:45:08;14.20;99.90
17956;DHT22;27666;51.498;11.966;2024-03-29T17:47:53;14.20;99.90
17956;DHT22;27666;51.498;11.966;2024-03-29T17:50:39;14.20;99.90
17956;DHT22;27666;51.498;11.966;2024-03-29T17:53:24;14.30;99.90
17956;DHT22;27666;51.498;11.966;2024-03-29T17:56:09;14.40;99.90
17956;DHT22;27666;51.498;11.966;2024-03-29T17:58:54;14.40;99.90
17956;DHT22;27666;51.498;11.966;2024-03-29T18:01:40;14.40;99.90
17956;DHT22;27666;51.498;11.966;2024-03-29T18:04:28;14.50;99.90
17956;DHT22;27666;51.498;11.966;2024-03-29T18:07:13;14.60;99.90
17956;DHT22;27666;51.498;11.966;2024-03-29T18:09:58;14.50;99.90
17956;DHT22;27666;51.498;11.966;2024-03-29T18:12:43;14.50;99.90
17956;DHT22;27666;51.498;11.966;2024-03-29T18:15:28;14.50;99.90
17956;DHT22;27666;51.498;11.966;2024-03-29T18:18:15;14.50;99.90
17956;DHT22;27666;51.498;11.966;2024-03-29T18:21:02;14.40;99.90
17956;DHT22;27666;51.498;11.966;2024-03-29T18:23:47;14.40;99.90
17956;DHT22;27666;51.498;11.966;2024-03-29T18:26:33;14.40;99.90
17956;DHT22;27666;51.498;11.966;2024-03-29T18:29:17;14.30;99.90
17956;DHT22;27666;51.498;11.966;2024-03-29T18:32:03;14.30;99.90
17956;DHT22;27666;51.498;11.966;2024-03-29T18:34:48;14.30;99.90
17956;DHT22;27666;51.498;11.966;2024-03-29T18:37:36;14.30;99.90
17956;DHT22;27666;51.498;11.966;2024-03-29T18:40:21;14.20;99.90
17956;DHT22;27666;51.498;11.966;2024-03-29T18:43:07;14.20;99.90
17956;DHT22;27666;51.498;11.966;2024-03-29T18:45:52;14.10;99.90
17956;DHT22;27666;51.498;11.966;2024-03-29T18:48:38;14.10;99.90
17956;DHT22;27666;51.498;11.966;2024-03-29T18:51:22;14.10;99.90
17956;DHT22;27666;51.498;11.966;2024-03-29T18:54:10;14.10;99.90
17956;DHT22;27666;51.498;11.966;2024-03-29T18:56:54;14.00;99.90
17956;DHT22;27666;51.498;11.966;2024-03-29T18:59:41;14.00;99.90
17956;DHT22;27666;51.498;11.966;2024-03-29T19:02:26;14.00;99.90
17956;DHT22;27666;51.498;11.966;2024-03-29T19:05:11;14.00;99.90
17956;DHT22;27666;51.498;11.966;2024-03-29T19:07:56;14.00;99.90
17956;DHT22;27666;51.498;11.966;2024-03-29T19:10:44;14.00;99.90
17956;DHT22;27666;51.498;11.966;2024-03-29T19:13:29;14.00;99.90
17956;DHT22;27666;51.498;11.966;2024-03-29T19:16:14;13.90;99.90
17956;DHT22;27666;51.498;11.966;2024-03-29T19:18:59;13.90;99.90
17956;DHT22;27666;51.498;11.966;2024-03-29T19:21:46;13.90;99.90
17956;DHT22;27666;51.498;11.966;2024-03-29T19:24:31;13.80;99.90
17956;DHT22;27666;51.498;11.966;2024-03-29T19:27:19;13.90;99.90
17956;DHT22;27666;51.498;11.966;2024-03-29T19:30:05;13.80;99.90
17956;DHT22;27666;51.498;11.966;2024-03-29T19:32:57;13.80;99.90
17956;DHT22;27666;51.498;11.966;2024-03-29T19:35:42;13.80;99.90
17956;DHT22;27666;51.498;11.966;2024-03-29T19:38:28;13.80;99.90
17956;DHT22;27666;51.498;11.966;2024-03-29T19:41:12;13.80;99.90
17956;DHT22;27666;51.498;11.966;2024-03-29T19:43:59;13.70;99.90
17956;DHT22;27666;51.498;11.966;2024-03-29T19:46:44;13.70;99.90
17956;DHT22;27666;51.498;11.966;2024-03-29T19:49:29;13.70;99.90
17956;DHT22;27666;51.498;11.966;2024-03-29T19:52:14;13.60;99.90
17956;DHT22;27666;51.498;11.966;2024-03-29T19:55:00;13.60;99.90
17956;DHT22;27666;51.498;11.966;2024-03-29T19:57:45;13.60;99.90
17956;DHT22;27666;51.498;11.966;2024-03-29T20:00:32;13.60;99.90
17956;DHT22;27666;51.498;11.966;2024-03-29T20:03:16;13.60;99.90
17956;DHT22;27666;51.498;11.966;2024-03-29T20:06:02;13.60;99.90
17956;DHT22;27666;51.498;11.966;2024-03-29T20:08:48;13.60;99.90
17956;DHT22;27666;51.498;11.966;2024-03-29T20:11:34;13.50;99.90
17956;DHT22;27666;51.498;11.966;2024-03-29T20:14:18;13.30;99.90
17956;DHT22;27666;51.498;11.966;2024-03-29T20:17:07;13.50;99.90
17956;DHT22;27666;51.498;11.966;2024-03-29T20:19:53;13.40;99.90
17956;DHT22;27666;51.498;11.966;2024-03-29T20:22:39;13.40;99.90
17956;DHT22;27666;51.498;11.966;2024-03-29T20:25:24;13.40;99.90
17956;DHT22;27666;51.498;11.966;2024-03-29T20:28:09;13.30;99.90
17956;DHT22;27666;51.498;11.966;2024-03-29T20:30:54;13.30;99.90
17956;DHT22;27666;51.498;11.966;2024-03-29T20:33:41;13.30;99.90
17956;DHT22;27666;51.498;11.966;2024-03-29T20:36:27;13.30;99.90
17956;DHT22;27666;51.498;11.966;2024-03-29T20:39:11;13.20;99.90
17956;DHT22;27666;51.498;11.966;2024-03-29T20:41:57;13.20;99.90
17956;DHT22;27666;51.498;11.966;2024-03-29T20:44:41;13.20;99.90
17956;DHT22;27666;51.498;11.966;2024-03-29T20:47:27;13.20;99.90
17956;DHT22;27666;51.498;11.966;2024-03-29T20:50:13;13.20;99.90
17956;DHT22;27666;51.498;11.966;2024-03-29T20:52:59;13.10;99.90
17956;DHT22;27666;51.498;11.966;2024-03-29T20:55:43;13.10;99.90
17956;DHT22;27666;51.498;11.966;2024-03-29T20:58:29;13.10;99.90
17956;DHT22;27666;51.498;11.966;2024-03-29T21:01:13;13.00;99.90
17956;DHT22;27666;51.498;11.966;2024-03-29T21:04:20;13.00;99.90
17956;DHT22;27666;51.498;11.966;2024-03-29T21:07:24;13.00;99.90
17956;DHT22;27666;51.498;11.966;2024-03-29T21:10:10;13.00;99.90
17956;DHT22;27666;51.498;11.966;2024-03-29T21:12:55;13.00;99.90
17956;DHT22;27666;51.498;11.966;2024-03-29T21:15:43;13.00;99.90
17956;DHT22;27666;51.498;11.966;2024-03-29T21:18:28;13.00;99.90
17956;DHT22;27666;51.498;11.966;2024-03-29T21:21:14;13.00;99.90
17956;DHT22;27666;51.498;11.966;2024-03-29T21:24:00;13.00;99.90
17956;DHT22;27666;51.498;11.966;2024-03-29T21:26:50;13.00;99.90
17956;DHT22;27666;51.498;11.966;2024-03-29T21:29:36;13.00;99.90
17956;DHT22;27666;51.498;11.966;2024-03-29T21:32:21;13.00;99.90
17956;DHT22;27666;51.498;11.966;2024-03-29T21:35:06;13.00;99.90
17956;DHT22;27666;51.498;11.966;2024-03-29T21:37:53;13.00;99.90
17956;DHT22;27666;51.498;11.966;2024-03-29T21:40:39;13.10;99.90
17956;DHT22;27666;51.498;11.966;2024-03-29T21:43:24;13.10;99.90
17956;DHT22;27666;51.498;11.966;2024-03-29T21:46:11;13.00;99.90
17956;DHT22;27666;51.498;11.966;2024-03-29T21:48:57;13.10;99.90
17956;DHT22;27666;51.498;11.966;2024-03-29T21:51:41;13.00;99.90
17956;DHT22;27666;51.498;11.966;2024-03-29T21:54:30;13.00;99.90
17956;DHT22;27666;51.498;11.966;2024-03-29T21:57:15;13.20;99.90
17956;DHT22;27666;51.498;11.966;2024-03-29T22:00:01;13.00;99.90
17956;DHT22;27666;51.498;11.966;2024-03-29T22:02:45;13.00;99.90
17956;DHT22;27666;51.498;11.966;2024-03-29T22:05:31;12.90;99.90
17956;DHT22;27666;51.498;11.966;2024-03-29T22:08:15;13.10;99.90
17956;DHT22;27666;51.498;11.966;2024-03-29T22:11:02;13.00;99.90
17956;DHT22;27666;51.498;11.966;2024-03-29T22:13:48;13.00;99.90
17956;DHT22;27666;51.498;11.966;2024-03-29T22:16:34;12.90;99.90
17956;DHT22;27666;51.498;11.966;2024-03-29T22:19:18;13.00;99.90
17956;DHT22;27666;51.498;11.966;2024-03-29T22:22:04;13.00;99.90
17956;DHT22;27666;51.498;11.966;2024-03-29T22:24:49;12.90;99.90
17956;DHT22;27666;51.498;11.966;2024-03-29T22:27:35;12.90;99.90
17956;DHT22;27666;51.498;11.966;2024-03-29T22:30:21;12.90;99.90
17956;DHT22;27666;51.498;11.966;2024-03-29T22:33:06;12.80;99.90
17956;DHT22;27666;51.498;11.966;2024-03-29T22:35:51;12.80;99.90
17956;DHT22;27666;51.498;11.966;2024-03-29T22:38:36;12.70;99.90
17956;DHT22;27666;51.498;11.966;2024-03-29T22:41:23;12.70;99.90
17956;DHT22;27666;51.498;11.966;2024-03-29T22:44:09;12.60;99.90
17956;DHT22;27666;51.498;11.966;2024-03-29T22:46:55;12.60;99.90
17956;DHT22;27666;51.498;11.966;2024-03-29T22:49:41;12.60;99.90
17956;DHT22;27666;51.498;11.966;2024-03-29T22:52:25;12.60;99.90
17956;DHT22;27666;51.498;11.966;2024-03-29T22:55:11;12.50;99.90
17956;DHT22;27666;51.498;11.966;2024-03-29T22:57:55;12.50;99.90
17956;DHT22;27666;51.498;11.966;2024-03-29T23:00:41;12.50;99.90
17956;DHT22;27666;51.498;11.966;2024-03-29T23:03:27;12.50;99.90
17956;DHT22;27666;51.498;11.966;2024-03-29T23:06:13;12.50;99.90
17956;DHT22;27666;51.498;11.966;2024-03-29T23:08:57;12.50;99.90
17956;DHT22;27666;51.498;11.966;2024-03-29T23:11:43;12.60;99.90
17956;DHT22;27666;51.498;11.966;2024-03-29T23:14:28;12.50;99.90
17956;DHT22;27666;51.498;11.966;2024-03-29T23:17:14;12.60;99.90
17956;DHT22;27666;51.498;11.966;2024-03-29T23:19:59;12.60;99.90
17956;DHT22;27666;51.498;11.966;2024-03-29T23:22:45;12.60;99.90
17956;DHT22;27666;51.498;11.966;2024-03-29T23:25:30;12.60;99.90
17956;DHT22;27666;51.498;11.966;2024-03-29T23:28:16;12.70;99.90
17956;DHT22;27666;51.498;11.966;2024-03-29T23:31:03;12.40;99.90
17956;DHT22;27666;51.498;11.966;2024-03-29T23:33:49;12.40;99.90
17956;DHT22;27666;51.498;11.966;2024-03-29T23:36:36;12.40;99.90
17956;DHT22;27666;51.498;11.966;2024-03-29T23:39:22;12.30;99.90
17956;DHT22;27666;51.498;11.966;2024-03-29T23:42:07;12.30;99.90
17956;DHT22;27666;51.498;11.966;2024-03-29T23:44:52;12.30;99.90
17956;DHT22;27666;51.498;11.966;2024-03-29T23:47:38;12.20;99.90
17956;DHT22;27666;51.498;11.966;2024-03-29T23:50:25;12.20;99.90
17956;DHT22;27666;51.498;11.966;2024-03-29T23:53:12;12.20;99.90
17956;DHT22;27666;51.498;11.966;2024-03-29T23:55:57;12.20;99.90
17956;DHT22;27666;51.498;11.966;2024-03-29T23:58:43;12.10;99.90
